sensor_id;sensor_type;location;lat;lon;timestamp;P1;durP1;ratioP1;P2;durP2;ratioP2
57832;SDS011;43667;53.036;6.740;2023-05-15T00:00:54;71.43;;;46.10;;
57832;SDS011;43667;53.036;6.740;2023-05-15T00:03:20;56.92;;;40.80;;
57832;SDS011;43667;53.036;6.740;2023-05-15T00:05:46;65.95;;;43.92;;
57832;SDS011;43667;53.036;6.740;2023-05-15T00:08:13;58.53;;;41.63;;
57832;SDS011;43667;53.036;6.740;2023-05-15T00:10:39;50.22;;;40.00;;
57832;SDS011;43667;53.036;6.740;2023-05-15T00:13:05;56.72;;;41.10;;
57832;SDS011;43667;53.036;6.740;2023-05-15T00:15:31;55.42;;;42.20;;
57832;SDS011;43667;53.036;6.740;2023-05-15T00:17:57;111.85;;;43.38;;
57832;SDS011;43667;53.036;6.740;2023-05-15T00:20:23;65.15;;;43.55;;
57832;SDS011;43667;53.036;6.740;2023-05-15T00:22:49;49.45;;;38.67;;
57832;SDS011;43667;53.036;6.740;2023-05-15T00:25:15;48.45;;;38.40;;
57832;SDS011;43667;53.036;6.740;2023-05-15T00:27:43;89.40;;;44.75;;
57832;SDS011;43667;53.036;6.740;2023-05-15T00:30:09;59.33;;;43.80;;
57832;SDS011;43667;53.036;6.740;2023-05-15T00:32:35;51.53;;;41.63;;
57832;SDS011;43667;53.036;6.740;2023-05-15T00:35:01;44.67;;;37.10;;
57832;SDS011;43667;53.036;6.740;2023-05-15T00:37:27;58.30;;;43.75;;
57832;SDS011;43667;53.036;6.740;2023-05-15T00:39:53;46.13;;;38.97;;
57832;SDS011;43667;53.036;6.740;2023-05-15T00:42:19;66.93;;;45.63;;
57832;SDS011;43667;53.036;6.740;2023-05-15T00:44:45;61.03;;;44.22;;
57832;SDS011;43667;53.036;6.740;2023-05-15T00:47:12;60.35;;;44.92;;
57832;SDS011;43667;53.036;6.740;2023-05-15T00:49:39;66.97;;;44.17;;
57832;SDS011;43667;53.036;6.740;2023-05-15T00:52:06;41.28;;;36.38;;
57832;SDS011;43667;53.036;6.740;2023-05-15T00:54:32;52.17;;;40.90;;
57832;SDS011;43667;53.036;6.740;2023-05-15T00:56:58;57.95;;;43.42;;
57832;SDS011;43667;53.036;6.740;2023-05-15T00:59:26;55.67;;;41.63;;
57832;SDS011;43667;53.036;6.740;2023-05-15T01:01:52;42.50;;;37.45;;
57832;SDS011;43667;53.036;6.740;2023-05-15T01:04:18;44.35;;;38.35;;
57832;SDS011;43667;53.036;6.740;2023-05-15T01:06:44;42.72;;;36.25;;
57832;SDS011;43667;53.036;6.740;2023-05-15T01:09:12;45.67;;;37.55;;
57832;SDS011;43667;53.036;6.740;2023-05-15T01:11:39;61.33;;;41.17;;
57832;SDS011;43667;53.036;6.740;2023-05-15T01:14:07;55.83;;;41.25;;
57832;SDS011;43667;53.036;6.740;2023-05-15T01:16:34;94.50;;;45.55;;
57832;SDS011;43667;53.036;6.740;2023-05-15T01:19:00;47.80;;;37.67;;
57832;SDS011;43667;53.036;6.740;2023-05-15T01:32:18;54.08;;;39.10;;
57832;SDS011;43667;53.036;6.740;2023-05-15T01:37:18;49.80;;;40.55;;
57832;SDS011;43667;53.036;6.740;2023-05-15T01:39:46;44.55;;;38.58;;
57832;SDS011;43667;53.036;6.740;2023-05-15T01:42:14;51.80;;;39.22;;
57832;SDS011;43667;53.036;6.740;2023-05-15T01:44:51;56.47;;;41.85;;
57832;SDS011;43667;53.036;6.740;2023-05-15T01:47:19;52.95;;;41.58;;
57832;SDS011;43667;53.036;6.740;2023-05-15T01:49:45;51.63;;;39.50;;
57832;SDS011;43667;53.036;6.740;2023-05-15T01:52:18;54.63;;;43.40;;
57832;SDS011;43667;53.036;6.740;2023-05-15T01:54:46;53.13;;;40.38;;
57832;SDS011;43667;53.036;6.740;2023-05-15T01:57:13;56.67;;;41.83;;
57832;SDS011;43667;53.036;6.740;2023-05-15T01:59:39;48.65;;;39.17;;
57832;SDS011;43667;53.036;6.740;2023-05-15T02:02:06;57.20;;;42.70;;
57832;SDS011;43667;53.036;6.740;2023-05-15T02:04:32;58.40;;;43.78;;
57832;SDS011;43667;53.036;6.740;2023-05-15T02:07:00;52.30;;;42.65;;
57832;SDS011;43667;53.036;6.740;2023-05-15T02:09:26;47.97;;;38.85;;
57832;SDS011;43667;53.036;6.740;2023-05-15T02:11:52;59.63;;;43.28;;
57832;SDS011;43667;53.036;6.740;2023-05-15T02:14:19;56.45;;;43.97;;
57832;SDS011;43667;53.036;6.740;2023-05-15T02:16:45;53.03;;;41.53;;
57832;SDS011;43667;53.036;6.740;2023-05-15T02:19:11;47.15;;;39.30;;
57832;SDS011;43667;53.036;6.740;2023-05-15T02:21:37;53.88;;;42.22;;
57832;SDS011;43667;53.036;6.740;2023-05-15T02:24:03;55.90;;;42.40;;
57832;SDS011;43667;53.036;6.740;2023-05-15T02:26:39;49.75;;;39.28;;
57832;SDS011;43667;53.036;6.740;2023-05-15T02:29:21;50.13;;;40.65;;
57832;SDS011;43667;53.036;6.740;2023-05-15T02:31:56;79.68;;;48.63;;
57832;SDS011;43667;53.036;6.740;2023-05-15T02:34:36;55.50;;;41.53;;
57832;SDS011;43667;53.036;6.740;2023-05-15T02:37:05;52.28;;;42.03;;
57832;SDS011;43667;53.036;6.740;2023-05-15T02:39:33;51.58;;;41.85;;
57832;SDS011;43667;53.036;6.740;2023-05-15T02:41:59;52.92;;;42.35;;
57832;SDS011;43667;53.036;6.740;2023-05-15T02:44:26;65.38;;;41.92;;
57832;SDS011;43667;53.036;6.740;2023-05-15T02:46:52;55.55;;;42.90;;
57832;SDS011;43667;53.036;6.740;2023-05-15T02:49:19;55.63;;;44.10;;
57832;SDS011;43667;53.036;6.740;2023-05-15T02:51:45;50.15;;;41.40;;
57832;SDS011;43667;53.036;6.740;2023-05-15T02:54:11;53.47;;;41.58;;
57832;SDS011;43667;53.036;6.740;2023-05-15T02:56:38;61.28;;;45.58;;
57832;SDS011;43667;53.036;6.740;2023-05-15T02:59:04;66.30;;;46.58;;
57832;SDS011;43667;53.036;6.740;2023-05-15T03:01:30;49.13;;;39.53;;
57832;SDS011;43667;53.036;6.740;2023-05-15T03:03:56;62.28;;;45.47;;
57832;SDS011;43667;53.036;6.740;2023-05-15T03:06:22;78.13;;;48.85;;
57832;SDS011;43667;53.036;6.740;2023-05-15T03:08:48;59.95;;;41.90;;
57832;SDS011;43667;53.036;6.740;2023-05-15T03:11:14;70.78;;;46.22;;
57832;SDS011;43667;53.036;6.740;2023-05-15T03:13:43;67.18;;;46.55;;
57832;SDS011;43667;53.036;6.740;2023-05-15T03:16:09;47.90;;;39.45;;
57832;SDS011;43667;53.036;6.740;2023-05-15T03:18:35;54.88;;;40.85;;
57832;SDS011;43667;53.036;6.740;2023-05-15T03:21:01;56.70;;;42.78;;
57832;SDS011;43667;53.036;6.740;2023-05-15T03:23:27;56.33;;;43.25;;
57832;SDS011;43667;53.036;6.740;2023-05-15T03:25:53;64.85;;;47.70;;
57832;SDS011;43667;53.036;6.740;2023-05-15T03:28:19;56.00;;;40.38;;
57832;SDS011;43667;53.036;6.740;2023-05-15T03:30:45;90.50;;;49.55;;
57832;SDS011;43667;53.036;6.740;2023-05-15T03:33:11;75.88;;;48.90;;
57832;SDS011;43667;53.036;6.740;2023-05-15T03:35:37;96.35;;;48.10;;
57832;SDS011;43667;53.036;6.740;2023-05-15T03:38:03;57.00;;;39.35;;
57832;SDS011;43667;53.036;6.740;2023-05-15T03:40:29;60.60;;;44.15;;
57832;SDS011;43667;53.036;6.740;2023-05-15T03:42:55;50.95;;;40.33;;
57832;SDS011;43667;53.036;6.740;2023-05-15T03:45:21;75.93;;;40.78;;
57832;SDS011;43667;53.036;6.740;2023-05-15T03:47:47;44.75;;;37.50;;
57832;SDS011;43667;53.036;6.740;2023-05-15T03:50:13;50.70;;;40.50;;
57832;SDS011;43667;53.036;6.740;2023-05-15T03:52:39;67.20;;;41.45;;
57832;SDS011;43667;53.036;6.740;2023-05-15T03:55:05;59.53;;;40.15;;
57832;SDS011;43667;53.036;6.740;2023-05-15T03:57:31;88.93;;;42.92;;
57832;SDS011;43667;53.036;6.740;2023-05-15T03:59:59;53.47;;;40.00;;
57832;SDS011;43667;53.036;6.740;2023-05-15T04:02:27;52.28;;;40.40;;
57832;SDS011;43667;53.036;6.740;2023-05-15T04:04:53;64.35;;;41.72;;
57832;SDS011;43667;53.036;6.740;2023-05-15T04:07:19;47.30;;;37.55;;
57832;SDS011;43667;53.036;6.740;2023-05-15T04:09:45;44.95;;;36.78;;
57832;SDS011;43667;53.036;6.740;2023-05-15T04:12:11;41.13;;;34.80;;
57832;SDS011;43667;53.036;6.740;2023-05-15T04:14:37;41.65;;;35.63;;
57832;SDS011;43667;53.036;6.740;2023-05-15T04:17:03;44.85;;;35.88;;
57832;SDS011;43667;53.036;6.740;2023-05-15T04:19:29;50.72;;;38.60;;
57832;SDS011;43667;53.036;6.740;2023-05-15T04:21:55;50.13;;;38.15;;
57832;SDS011;43667;53.036;6.740;2023-05-15T04:24:21;61.13;;;36.85;;
57832;SDS011;43667;53.036;6.740;2023-05-15T04:26:47;50.63;;;38.33;;
57832;SDS011;43667;53.036;6.740;2023-05-15T04:29:13;53.67;;;38.30;;
57832;SDS011;43667;53.036;6.740;2023-05-15T04:31:39;56.67;;;38.95;;
57832;SDS011;43667;53.036;6.740;2023-05-15T04:34:05;52.88;;;38.35;;
57832;SDS011;43667;53.036;6.740;2023-05-15T04:36:31;50.35;;;37.50;;
57832;SDS011;43667;53.036;6.740;2023-05-15T04:38:58;44.65;;;34.17;;
57832;SDS011;43667;53.036;6.740;2023-05-15T04:41:24;46.75;;;35.33;;
57832;SDS011;43667;53.036;6.740;2023-05-15T04:43:51;42.50;;;33.92;;
57832;SDS011;43667;53.036;6.740;2023-05-15T04:46:17;47.38;;;34.95;;
57832;SDS011;43667;53.036;6.740;2023-05-15T04:48:43;45.85;;;35.15;;
57832;SDS011;43667;53.036;6.740;2023-05-15T04:51:09;43.70;;;34.72;;
57832;SDS011;43667;53.036;6.740;2023-05-15T04:53:35;46.25;;;34.83;;
57832;SDS011;43667;53.036;6.740;2023-05-15T04:56:01;48.17;;;35.15;;
57832;SDS011;43667;53.036;6.740;2023-05-15T04:58:27;43.80;;;32.58;;
57832;SDS011;43667;53.036;6.740;2023-05-15T05:00:53;40.25;;;31.58;;
57832;SDS011;43667;53.036;6.740;2023-05-15T05:03:19;39.55;;;32.25;;
57832;SDS011;43667;53.036;6.740;2023-05-15T05:05:45;41.30;;;31.10;;
57832;SDS011;43667;53.036;6.740;2023-05-15T05:08:11;42.13;;;32.03;;
57832;SDS011;43667;53.036;6.740;2023-05-15T05:10:37;44.72;;;34.65;;
57832;SDS011;43667;53.036;6.740;2023-05-15T05:13:02;45.72;;;34.05;;
57832;SDS011;43667;53.036;6.740;2023-05-15T05:15:28;41.63;;;31.73;;
57832;SDS011;43667;53.036;6.740;2023-05-15T05:17:54;41.55;;;30.65;;
57832;SDS011;43667;53.036;6.740;2023-05-15T05:20:20;36.72;;;28.85;;
57832;SDS011;43667;53.036;6.740;2023-05-15T05:22:47;40.45;;;31.05;;
57832;SDS011;43667;53.036;6.740;2023-05-15T05:25:13;38.50;;;29.95;;
57832;SDS011;43667;53.036;6.740;2023-05-15T05:27:39;39.75;;;29.40;;
57832;SDS011;43667;53.036;6.740;2023-05-15T05:30:05;35.05;;;29.23;;
57832;SDS011;43667;53.036;6.740;2023-05-15T05:32:32;34.63;;;27.92;;
57832;SDS011;43667;53.036;6.740;2023-05-15T05:34:58;32.85;;;28.83;;
57832;SDS011;43667;53.036;6.740;2023-05-15T05:37:24;34.80;;;28.40;;
57832;SDS011;43667;53.036;6.740;2023-05-15T05:39:50;28.45;;;25.27;;
57832;SDS011;43667;53.036;6.740;2023-05-15T05:42:16;30.52;;;26.42;;
57832;SDS011;43667;53.036;6.740;2023-05-15T05:44:42;28.98;;;25.77;;
57832;SDS011;43667;53.036;6.740;2023-05-15T05:47:08;31.17;;;27.77;;
57832;SDS011;43667;53.036;6.740;2023-05-15T05:49:34;29.15;;;26.05;;
57832;SDS011;43667;53.036;6.740;2023-05-15T05:52:04;29.95;;;26.63;;
57832;SDS011;43667;53.036;6.740;2023-05-15T05:54:30;30.27;;;27.08;;
57832;SDS011;43667;53.036;6.740;2023-05-15T05:56:56;30.77;;;27.48;;
57832;SDS011;43667;53.036;6.740;2023-05-15T05:59:22;27.85;;;24.92;;
57832;SDS011;43667;53.036;6.740;2023-05-15T06:01:48;28.95;;;25.90;;
57832;SDS011;43667;53.036;6.740;2023-05-15T06:04:14;30.00;;;26.88;;
57832;SDS011;43667;53.036;6.740;2023-05-15T06:06:40;27.83;;;25.13;;
57832;SDS011;43667;53.036;6.740;2023-05-15T06:09:06;28.85;;;25.88;;
57832;SDS011;43667;53.036;6.740;2023-05-15T06:11:33;28.60;;;25.55;;
57832;SDS011;43667;53.036;6.740;2023-05-15T06:13:59;26.77;;;24.17;;
57832;SDS011;43667;53.036;6.740;2023-05-15T06:16:25;26.42;;;23.80;;
57832;SDS011;43667;53.036;6.740;2023-05-15T06:18:51;26.00;;;23.30;;
57832;SDS011;43667;53.036;6.740;2023-05-15T06:21:17;24.33;;;21.90;;
57832;SDS011;43667;53.036;6.740;2023-05-15T06:23:43;23.77;;;21.38;;
57832;SDS011;43667;53.036;6.740;2023-05-15T06:26:09;22.60;;;20.20;;
57832;SDS011;43667;53.036;6.740;2023-05-15T06:28:35;19.75;;;17.73;;
57832;SDS011;43667;53.036;6.740;2023-05-15T06:31:01;20.45;;;17.92;;
57832;SDS011;43667;53.036;6.740;2023-05-15T06:33:27;19.75;;;17.67;;
57832;SDS011;43667;53.036;6.740;2023-05-15T06:35:53;19.00;;;17.20;;
57832;SDS011;43667;53.036;6.740;2023-05-15T06:38:20;20.35;;;18.25;;
57832;SDS011;43667;53.036;6.740;2023-05-15T06:40:46;17.90;;;16.23;;
57832;SDS011;43667;53.036;6.740;2023-05-15T06:43:12;20.15;;;17.02;;
57832;SDS011;43667;53.036;6.740;2023-05-15T06:45:38;18.63;;;16.77;;
57832;SDS011;43667;53.036;6.740;2023-05-15T06:48:04;20.92;;;18.85;;
57832;SDS011;43667;53.036;6.740;2023-05-15T06:50:30;16.95;;;15.43;;
57832;SDS011;43667;53.036;6.740;2023-05-15T06:52:56;19.90;;;16.73;;
57832;SDS011;43667;53.036;6.740;2023-05-15T06:55:22;16.85;;;15.15;;
57832;SDS011;43667;53.036;6.740;2023-05-15T06:57:48;17.33;;;15.02;;
57832;SDS011;43667;53.036;6.740;2023-05-15T07:00:14;16.17;;;14.77;;
57832;SDS011;43667;53.036;6.740;2023-05-15T07:02:40;15.68;;;14.27;;
57832;SDS011;43667;53.036;6.740;2023-05-15T07:05:07;14.77;;;13.27;;
57832;SDS011;43667;53.036;6.740;2023-05-15T07:07:35;14.18;;;12.85;;
57832;SDS011;43667;53.036;6.740;2023-05-15T07:10:01;15.18;;;12.23;;
57832;SDS011;43667;53.036;6.740;2023-05-15T07:12:27;13.70;;;12.40;;
57832;SDS011;43667;53.036;6.740;2023-05-15T07:14:53;13.85;;;12.48;;
57832;SDS011;43667;53.036;6.740;2023-05-15T07:17:19;15.73;;;12.98;;
57832;SDS011;43667;53.036;6.740;2023-05-15T07:19:45;13.68;;;12.52;;
57832;SDS011;43667;53.036;6.740;2023-05-15T07:22:11;13.68;;;12.32;;
57832;SDS011;43667;53.036;6.740;2023-05-15T07:24:37;13.80;;;12.40;;
57832;SDS011;43667;53.036;6.740;2023-05-15T07:27:03;13.88;;;10.68;;
57832;SDS011;43667;53.036;6.740;2023-05-15T07:29:29;13.13;;;11.68;;
57832;SDS011;43667;53.036;6.740;2023-05-15T07:31:55;12.93;;;11.57;;
57832;SDS011;43667;53.036;6.740;2023-05-15T07:34:21;14.15;;;11.60;;
57832;SDS011;43667;53.036;6.740;2023-05-15T07:36:47;12.05;;;10.80;;
57832;SDS011;43667;53.036;6.740;2023-05-15T07:39:13;13.95;;;12.27;;
57832;SDS011;43667;53.036;6.740;2023-05-15T07:41:40;12.93;;;11.60;;
57832;SDS011;43667;53.036;6.740;2023-05-15T07:44:06;12.93;;;11.40;;
57832;SDS011;43667;53.036;6.740;2023-05-15T07:46:32;13.30;;;11.90;;
57832;SDS011;43667;53.036;6.740;2023-05-15T07:48:58;16.45;;;10.88;;
57832;SDS011;43667;53.036;6.740;2023-05-15T07:51:24;11.70;;;10.25;;
57832;SDS011;43667;53.036;6.740;2023-05-15T07:53:50;12.05;;;10.88;;
57832;SDS011;43667;53.036;6.740;2023-05-15T07:56:16;10.93;;;9.90;;
57832;SDS011;43667;53.036;6.740;2023-05-15T07:58:42;10.02;;;8.98;;
57832;SDS011;43667;53.036;6.740;2023-05-15T08:01:08;13.60;;;10.48;;
57832;SDS011;43667;53.036;6.740;2023-05-15T08:03:34;11.43;;;10.27;;
57832;SDS011;43667;53.036;6.740;2023-05-15T08:06:00;11.73;;;10.60;;
57832;SDS011;43667;53.036;6.740;2023-05-15T08:08:26;11.73;;;10.65;;
57832;SDS011;43667;53.036;6.740;2023-05-15T08:10:52;10.90;;;9.90;;
57832;SDS011;43667;53.036;6.740;2023-05-15T08:13:18;12.52;;;8.98;;
57832;SDS011;43667;53.036;6.740;2023-05-15T08:15:44;13.52;;;9.82;;
57832;SDS011;43667;53.036;6.740;2023-05-15T08:18:10;9.90;;;9.00;;
57832;SDS011;43667;53.036;6.740;2023-05-15T08:20:37;9.95;;;9.05;;
57832;SDS011;43667;53.036;6.740;2023-05-15T08:23:03;13.77;;;9.82;;
57832;SDS011;43667;53.036;6.740;2023-05-15T08:25:29;10.82;;;9.52;;
57832;SDS011;43667;53.036;6.740;2023-05-15T08:27:56;10.90;;;9.20;;
57832;SDS011;43667;53.036;6.740;2023-05-15T08:30:22;9.45;;;8.13;;
57832;SDS011;43667;53.036;6.740;2023-05-15T08:32:48;8.20;;;7.35;;
57832;SDS011;43667;53.036;6.740;2023-05-15T08:35:14;8.05;;;7.25;;
57832;SDS011;43667;53.036;6.740;2023-05-15T08:37:40;9.18;;;6.88;;
57832;SDS011;43667;53.036;6.740;2023-05-15T08:40:07;9.05;;;7.32;;
57832;SDS011;43667;53.036;6.740;2023-05-15T08:42:44;8.77;;;7.65;;
57832;SDS011;43667;53.036;6.740;2023-05-15T08:45:12;8.05;;;6.85;;
57832;SDS011;43667;53.036;6.740;2023-05-15T08:47:39;10.43;;;7.85;;
57832;SDS011;43667;53.036;6.740;2023-05-15T08:52:32;9.68;;;8.73;;
57832;SDS011;43667;53.036;6.740;2023-05-15T08:54:59;10.07;;;8.35;;
57832;SDS011;43667;53.036;6.740;2023-05-15T08:57:25;9.52;;;8.05;;
57832;SDS011;43667;53.036;6.740;2023-05-15T08:59:52;8.45;;;7.60;;
57832;SDS011;43667;53.036;6.740;2023-05-15T09:02:19;8.55;;;7.35;;
57832;SDS011;43667;53.036;6.740;2023-05-15T09:04:45;8.07;;;6.60;;
57832;SDS011;43667;53.036;6.740;2023-05-15T09:07:12;8.57;;;6.35;;
57832;SDS011;43667;53.036;6.740;2023-05-15T09:09:38;8.93;;;6.13;;
57832;SDS011;43667;53.036;6.740;2023-05-15T09:12:06;8.13;;;6.22;;
57832;SDS011;43667;53.036;6.740;2023-05-15T09:14:33;8.13;;;5.53;;
57832;SDS011;43667;53.036;6.740;2023-05-15T09:17:00;6.47;;;5.80;;
57832;SDS011;43667;53.036;6.740;2023-05-15T09:19:26;9.05;;;6.30;;
57832;SDS011;43667;53.036;6.740;2023-05-15T09:21:52;7.63;;;5.70;;
57832;SDS011;43667;53.036;6.740;2023-05-15T09:24:22;7.00;;;5.88;;
57832;SDS011;43667;53.036;6.740;2023-05-15T09:27:03;5.30;;;4.80;;
57832;SDS011;43667;53.036;6.740;2023-05-15T09:29:30;7.20;;;6.50;;
57832;SDS011;43667;53.036;6.740;2023-05-15T09:32:00;7.00;;;6.40;;
57832;SDS011;43667;53.036;6.740;2023-05-15T09:34:27;7.07;;;5.28;;
57832;SDS011;43667;53.036;6.740;2023-05-15T09:36:54;6.88;;;6.25;;
57832;SDS011;43667;53.036;6.740;2023-05-15T09:39:23;7.18;;;5.57;;
57832;SDS011;43667;53.036;6.740;2023-05-15T09:41:50;9.27;;;5.60;;
57832;SDS011;43667;53.036;6.740;2023-05-15T09:44:23;5.78;;;5.13;;
57832;SDS011;43667;53.036;6.740;2023-05-15T09:46:49;5.75;;;5.13;;
57832;SDS011;43667;53.036;6.740;2023-05-15T09:49:16;5.50;;;4.85;;
57832;SDS011;43667;53.036;6.740;2023-05-15T09:51:43;9.63;;;6.43;;
57832;SDS011;43667;53.036;6.740;2023-05-15T09:54:13;10.70;;;5.80;;
57832;SDS011;43667;53.036;6.740;2023-05-15T09:56:41;4.63;;;4.13;;
57832;SDS011;43667;53.036;6.740;2023-05-15T09:59:08;7.05;;;5.68;;
57832;SDS011;43667;53.036;6.740;2023-05-15T10:01:37;6.65;;;6.03;;
57832;SDS011;43667;53.036;6.740;2023-05-15T10:04:05;7.45;;;5.78;;
57832;SDS011;43667;53.036;6.740;2023-05-15T10:06:33;10.45;;;6.97;;
57832;SDS011;43667;53.036;6.740;2023-05-15T10:09:00;7.60;;;6.78;;
57832;SDS011;43667;53.036;6.740;2023-05-15T10:11:26;7.43;;;6.68;;
57832;SDS011;43667;53.036;6.740;2023-05-15T10:13:54;7.03;;;5.97;;
57832;SDS011;43667;53.036;6.740;2023-05-15T10:16:20;6.50;;;5.35;;
57832;SDS011;43667;53.036;6.740;2023-05-15T10:18:46;6.47;;;4.65;;
57832;SDS011;43667;53.036;6.740;2023-05-15T10:21:13;8.13;;;5.70;;
57832;SDS011;43667;53.036;6.740;2023-05-15T10:23:42;8.55;;;5.88;;
57832;SDS011;43667;53.036;6.740;2023-05-15T10:26:15;7.55;;;5.80;;
57832;SDS011;43667;53.036;6.740;2023-05-15T10:28:45;9.57;;;5.57;;
57832;SDS011;43667;53.036;6.740;2023-05-15T10:31:12;8.38;;;5.00;;
57832;SDS011;43667;53.036;6.740;2023-05-15T10:33:38;7.35;;;4.78;;
57832;SDS011;43667;53.036;6.740;2023-05-15T10:36:05;5.85;;;5.07;;
57832;SDS011;43667;53.036;6.740;2023-05-15T10:38:32;9.10;;;5.35;;
57832;SDS011;43667;53.036;6.740;2023-05-15T10:40:58;4.95;;;3.85;;
57832;SDS011;43667;53.036;6.740;2023-05-15T10:43:25;8.48;;;4.43;;
57832;SDS011;43667;53.036;6.740;2023-05-15T10:45:51;6.70;;;3.63;;
57832;SDS011;43667;53.036;6.740;2023-05-15T10:48:17;9.68;;;4.80;;
57832;SDS011;43667;53.036;6.740;2023-05-15T10:50:43;7.28;;;4.53;;
57832;SDS011;43667;53.036;6.740;2023-05-15T10:53:10;7.15;;;4.00;;
57832;SDS011;43667;53.036;6.740;2023-05-15T10:55:36;6.32;;;3.83;;
57832;SDS011;43667;53.036;6.740;2023-05-15T10:58:09;5.15;;;4.00;;
57832;SDS011;43667;53.036;6.740;2023-05-15T11:00:42;8.50;;;4.20;;
57832;SDS011;43667;53.036;6.740;2023-05-15T11:03:12;5.63;;;4.22;;
57832;SDS011;43667;53.036;6.740;2023-05-15T11:08:22;7.20;;;5.18;;
57832;SDS011;43667;53.036;6.740;2023-05-15T11:10:50;6.70;;;4.38;;
57832;SDS011;43667;53.036;6.740;2023-05-15T11:13:16;5.85;;;4.72;;
57832;SDS011;43667;53.036;6.740;2023-05-15T11:15:43;8.27;;;4.80;;
57832;SDS011;43667;53.036;6.740;2023-05-15T11:18:09;8.32;;;4.45;;
57832;SDS011;43667;53.036;6.740;2023-05-15T11:20:40;4.78;;;3.53;;
57832;SDS011;43667;53.036;6.740;2023-05-15T11:23:06;6.07;;;4.50;;
57832;SDS011;43667;53.036;6.740;2023-05-15T11:25:33;4.63;;;3.83;;
57832;SDS011;43667;53.036;6.740;2023-05-15T11:27:59;5.63;;;3.85;;
57832;SDS011;43667;53.036;6.740;2023-05-15T11:30:34;4.80;;;4.20;;
57832;SDS011;43667;53.036;6.740;2023-05-15T11:33:04;5.55;;;4.65;;
57832;SDS011;43667;53.036;6.740;2023-05-15T11:35:40;6.75;;;4.38;;
57832;SDS011;43667;53.036;6.740;2023-05-15T11:38:16;5.65;;;4.07;;
57832;SDS011;43667;53.036;6.740;2023-05-15T11:40:45;5.07;;;4.20;;
57832;SDS011;43667;53.036;6.740;2023-05-15T11:43:24;8.70;;;4.57;;
57832;SDS011;43667;53.036;6.740;2023-05-15T11:45:51;5.43;;;4.40;;
57832;SDS011;43667;53.036;6.740;2023-05-15T11:48:19;8.48;;;5.10;;
57832;SDS011;43667;53.036;6.740;2023-05-15T11:50:49;5.00;;;4.20;;
57832;SDS011;43667;53.036;6.740;2023-05-15T11:53:17;9.77;;;4.28;;
57832;SDS011;43667;53.036;6.740;2023-05-15T11:55:44;5.38;;;3.40;;
57832;SDS011;43667;53.036;6.740;2023-05-15T11:58:17;6.40;;;4.40;;
57832;SDS011;43667;53.036;6.740;2023-05-15T12:00:44;6.15;;;4.20;;
57832;SDS011;43667;53.036;6.740;2023-05-15T12:03:17;6.85;;;4.13;;
57832;SDS011;43667;53.036;6.740;2023-05-15T12:05:44;8.25;;;4.13;;
57832;SDS011;43667;53.036;6.740;2023-05-15T12:08:10;4.88;;;3.63;;
57832;SDS011;43667;53.036;6.740;2023-05-15T12:10:40;5.70;;;4.03;;
57832;SDS011;43667;53.036;6.740;2023-05-15T12:13:07;4.45;;;3.95;;
57832;SDS011;43667;53.036;6.740;2023-05-15T12:15:35;6.57;;;3.28;;
57832;SDS011;43667;53.036;6.740;2023-05-15T12:18:02;6.63;;;3.92;;
57832;SDS011;43667;53.036;6.740;2023-05-15T12:20:31;5.32;;;3.42;;
57832;SDS011;43667;53.036;6.740;2023-05-15T12:22:57;7.72;;;4.32;;
57832;SDS011;43667;53.036;6.740;2023-05-15T12:25:23;4.70;;;3.60;;
57832;SDS011;43667;53.036;6.740;2023-05-15T12:27:49;5.70;;;4.00;;
57832;SDS011;43667;53.036;6.740;2023-05-15T12:30:15;7.03;;;3.63;;
57832;SDS011;43667;53.036;6.740;2023-05-15T12:32:42;6.25;;;4.30;;
57832;SDS011;43667;53.036;6.740;2023-05-15T12:35:08;5.65;;;4.25;;
57832;SDS011;43667;53.036;6.740;2023-05-15T12:37:36;4.15;;;3.00;;
57832;SDS011;43667;53.036;6.740;2023-05-15T12:40:02;7.35;;;3.83;;
57832;SDS011;43667;53.036;6.740;2023-05-15T12:42:52;8.70;;;3.50;;
57832;SDS011;43667;53.036;6.740;2023-05-15T12:45:19;6.03;;;4.45;;
57832;SDS011;43667;53.036;6.740;2023-05-15T12:47:46;8.50;;;4.00;;
57832;SDS011;43667;53.036;6.740;2023-05-15T12:50:20;6.47;;;5.60;;
57832;SDS011;43667;53.036;6.740;2023-05-15T12:52:47;7.82;;;5.00;;
57832;SDS011;43667;53.036;6.740;2023-05-15T12:55:22;6.70;;;4.10;;
57832;SDS011;43667;53.036;6.740;2023-05-15T12:57:48;6.18;;;5.57;;
57832;SDS011;43667;53.036;6.740;2023-05-15T13:00:14;7.35;;;6.03;;
57832;SDS011;43667;53.036;6.740;2023-05-15T13:02:44;6.97;;;6.22;;
57832;SDS011;43667;53.036;6.740;2023-05-15T13:05:10;26.38;;;5.85;;
57832;SDS011;43667;53.036;6.740;2023-05-15T13:07:37;5.50;;;4.97;;
57832;SDS011;43667;53.036;6.740;2023-05-15T13:10:06;7.80;;;5.07;;
57832;SDS011;43667;53.036;6.740;2023-05-15T13:12:38;6.35;;;5.43;;
57832;SDS011;43667;53.036;6.740;2023-05-15T13:17:31;8.52;;;5.22;;
57832;SDS011;43667;53.036;6.740;2023-05-15T13:19:59;6.25;;;4.75;;
57832;SDS011;43667;53.036;6.740;2023-05-15T13:22:25;5.20;;;4.22;;
57832;SDS011;43667;53.036;6.740;2023-05-15T13:24:51;5.35;;;3.95;;
57832;SDS011;43667;53.036;6.740;2023-05-15T13:27:18;5.43;;;4.15;;
57832;SDS011;43667;53.036;6.740;2023-05-15T13:29:44;4.78;;;4.00;;
57832;SDS011;43667;53.036;6.740;2023-05-15T13:32:10;5.28;;;3.92;;
57832;SDS011;43667;53.036;6.740;2023-05-15T13:34:36;4.57;;;4.18;;
57832;SDS011;43667;53.036;6.740;2023-05-15T13:37:02;8.35;;;4.50;;
57832;SDS011;43667;53.036;6.740;2023-05-15T13:39:28;5.40;;;4.10;;
57832;SDS011;43667;53.036;6.740;2023-05-15T13:41:54;4.85;;;3.40;;
57832;SDS011;43667;53.036;6.740;2023-05-15T13:44:20;8.10;;;4.30;;
57832;SDS011;43667;53.036;6.740;2023-05-15T13:46:46;6.20;;;3.97;;
57832;SDS011;43667;53.036;6.740;2023-05-15T13:49:12;5.53;;;3.63;;
57832;SDS011;43667;53.036;6.740;2023-05-15T13:51:38;5.38;;;3.42;;
57832;SDS011;43667;53.036;6.740;2023-05-15T13:54:04;6.20;;;4.30;;
57832;SDS011;43667;53.036;6.740;2023-05-15T13:56:30;5.47;;;4.13;;
57832;SDS011;43667;53.036;6.740;2023-05-15T13:58:56;6.95;;;5.13;;
57832;SDS011;43667;53.036;6.740;2023-05-15T14:01:22;5.80;;;5.20;;
57832;SDS011;43667;53.036;6.740;2023-05-15T14:03:48;5.43;;;4.50;;
57832;SDS011;43667;53.036;6.740;2023-05-15T14:06:14;5.72;;;5.22;;
57832;SDS011;43667;53.036;6.740;2023-05-15T14:08:40;6.10;;;4.35;;
57832;SDS011;43667;53.036;6.740;2023-05-15T14:11:06;5.30;;;4.80;;
57832;SDS011;43667;53.036;6.740;2023-05-15T14:13:32;8.05;;;5.28;;
57832;SDS011;43667;53.036;6.740;2023-05-15T14:15:58;6.00;;;5.40;;
57832;SDS011;43667;53.036;6.740;2023-05-15T14:18:24;4.88;;;4.40;;
57832;SDS011;43667;53.036;6.740;2023-05-15T14:20:50;5.75;;;5.25;;
57832;SDS011;43667;53.036;6.740;2023-05-15T14:23:16;8.15;;;5.05;;
57832;SDS011;43667;53.036;6.740;2023-05-15T14:25:42;6.55;;;5.43;;
57832;SDS011;43667;53.036;6.740;2023-05-15T14:28:08;7.47;;;6.15;;
57832;SDS011;43667;53.036;6.740;2023-05-15T14:30:35;6.53;;;5.82;;
57832;SDS011;43667;53.036;6.740;2023-05-15T14:33:01;8.52;;;4.45;;
57832;SDS011;43667;53.036;6.740;2023-05-15T14:35:27;6.97;;;5.90;;
57832;SDS011;43667;53.036;6.740;2023-05-15T14:37:53;7.55;;;5.30;;
57832;SDS011;43667;53.036;6.740;2023-05-15T14:40:19;6.88;;;6.18;;
57832;SDS011;43667;53.036;6.740;2023-05-15T14:42:45;5.85;;;4.70;;
57832;SDS011;43667;53.036;6.740;2023-05-15T14:45:11;8.23;;;5.70;;
57832;SDS011;43667;53.036;6.740;2023-05-15T14:47:38;5.13;;;4.63;;
57832;SDS011;43667;53.036;6.740;2023-05-15T14:50:04;7.43;;;6.72;;
57832;SDS011;43667;53.036;6.740;2023-05-15T14:52:30;6.47;;;5.78;;